sensor_id;sensor_type;location;lat;lon;timestamp;pressure;altitude;pressure_sealevel;temperature;humidity
60479;BME280;46321;48.398;11.754;2023-09-19T00:01:42;96252.38;;;15.63;89.12
60479;BME280;46321;48.398;11.754;2023-09-19T00:04:09;96257.69;;;15.63;88.77
60479;BME280;46321;48.398;11.754;2023-09-19T00:06:38;96250.72;;;15.62;88.33
60479;BME280;46321;48.398;11.754;2023-09-19T00:09:03;96248.66;;;15.64;87.93
60479;BME280;46321;48.398;11.754;2023-09-19T00:11:29;96263.84;;;15.63;87.88
60479;BME280;46321;48.398;11.754;2023-09-19T00:13:54;96259.53;;;15.62;88.02
60479;BME280;46321;48.398;11.754;2023-09-19T00:16:20;96253.19;;;15.63;88.03
60479;BME280;46321;48.398;11.754;2023-09-19T00:18:46;96267.91;;;15.66;87.61
60479;BME280;46321;48.398;11.754;2023-09-19T00:21:11;96260.38;;;15.63;87.53
60479;BME280;46321;48.398;11.754;2023-09-19T00:23:38;96253.59;;;15.60;87.32
60479;BME280;46321;48.398;11.754;2023-09-19T00:26:03;96241.31;;;15.59;87.31
60479;BME280;46321;48.398;11.754;2023-09-19T00:28:29;96245.03;;;15.51;88.00
60479;BME280;46321;48.398;11.754;2023-09-19T00:30:55;96234.78;;;15.48;87.92
60479;BME280;46321;48.398;11.754;2023-09-19T00:33:21;96243.81;;;15.47;88.02
60479;BME280;46321;48.398;11.754;2023-09-19T00:35:51;96241.97;;;15.48;88.40
60479;BME280;46321;48.398;11.754;2023-09-19T00:38:17;96240.56;;;15.45;88.91
60479;BME280;46321;48.398;11.754;2023-09-19T00:40:45;96248.56;;;15.45;89.29
60479;BME280;46321;48.398;11.754;2023-09-19T00:43:10;96240.56;;;15.45;88.83
60479;BME280;46321;48.398;11.754;2023-09-19T00:45:37;96244.03;;;15.45;88.96
60479;BME280;46321;48.398;11.754;2023-09-19T00:48:07;96243.22;;;15.45;88.53
60479;BME280;46321;48.398;11.754;2023-09-19T00:50:34;96246.28;;;15.42;88.50
60479;BME280;46321;48.398;11.754;2023-09-19T00:53:00;96249.59;;;15.37;88.60
60479;BME280;46321;48.398;11.754;2023-09-19T00:55:26;96256.09;;;15.48;87.88
60479;BME280;46321;48.398;11.754;2023-09-19T00:57:56;96267.19;;;15.52;87.59
60479;BME280;46321;48.398;11.754;2023-09-19T01:00:22;96263.09;;;15.49;88.04
60479;BME280;46321;48.398;11.754;2023-09-19T01:02:48;96261.03;;;15.51;87.63
60479;BME280;46321;48.398;11.754;2023-09-19T01:05:14;96266.41;;;15.44;87.78
60479;BME280;46321;48.398;11.754;2023-09-19T01:07:39;96261.84;;;15.52;86.79
60479;BME280;46321;48.398;11.754;2023-09-19T01:10:11;96271.69;;;15.51;86.91
60479;BME280;46321;48.398;11.754;2023-09-19T01:12:53;96265.53;;;15.51;87.26
60479;BME280;46321;48.398;11.754;2023-09-19T01:15:44;96274.97;;;15.53;87.33
60479;BME280;46321;48.398;11.754;2023-09-19T01:23:39;96283.78;;;15.61;87.38
60479;BME280;46321;48.398;11.754;2023-09-19T01:26:22;96285.81;;;15.65;87.34
60479;BME280;46321;48.398;11.754;2023-09-19T01:29:26;96289.09;;;15.61;86.88
60479;BME280;46321;48.398;11.754;2023-09-19T01:31:57;96287.69;;;15.58;87.03
60479;BME280;46321;48.398;11.754;2023-09-19T01:34:26;96297.50;;;15.64;85.66
60479;BME280;46321;48.398;11.754;2023-09-19T01:36:51;96295.25;;;15.61;85.18
60479;BME280;46321;48.398;11.754;2023-09-19T01:39:17;96299.59;;;15.55;85.27
60479;BME280;46321;48.398;11.754;2023-09-19T01:42:18;96299.94;;;15.66;84.66
60479;BME280;46321;48.398;11.754;2023-09-19T01:45:02;96311.88;;;15.63;84.39
60479;BME280;46321;48.398;11.754;2023-09-19T01:47:34;96304.66;;;15.64;84.68
60479;BME280;46321;48.398;11.754;2023-09-19T01:50:27;96304.28;;;15.60;84.73
60479;BME280;46321;48.398;11.754;2023-09-19T01:52:59;96306.13;;;15.60;85.20
60479;BME280;46321;48.398;11.754;2023-09-19T01:55:30;96304.66;;;15.64;84.52
60479;BME280;46321;48.398;11.754;2023-09-19T01:58:03;96300.75;;;15.66;85.05
60479;BME280;46321;48.398;11.754;2023-09-19T02:00:32;96297.69;;;15.70;84.58
60479;BME280;46321;48.398;11.754;2023-09-19T02:03:00;96303.63;;;15.72;84.49
60479;BME280;46321;48.398;11.754;2023-09-19T02:05:27;96299.88;;;15.79;83.91
60479;BME280;46321;48.398;11.754;2023-09-19T02:07:53;96297.16;;;15.86;83.73
60479;BME280;46321;48.398;11.754;2023-09-19T02:10:19;96305.19;;;15.86;83.87
60479;BME280;46321;48.398;11.754;2023-09-19T02:12:44;96303.53;;;15.92;83.31
60479;BME280;46321;48.398;11.754;2023-09-19T02:15:10;96312.50;;;15.98;83.46
60479;BME280;46321;48.398;11.754;2023-09-19T02:17:35;96306.16;;;15.99;83.11
60479;BME280;46321;48.398;11.754;2023-09-19T02:20:00;96294.66;;;15.98;83.68
60479;BME280;46321;48.398;11.754;2023-09-19T02:22:32;96293.19;;;16.02;83.01
60479;BME280;46321;48.398;11.754;2023-09-19T02:24:57;96293.63;;;16.06;83.38
60479;BME280;46321;48.398;11.754;2023-09-19T02:27:25;96296.88;;;16.08;82.64
60479;BME280;46321;48.398;11.754;2023-09-19T02:29:50;96289.69;;;16.09;82.75
60479;BME280;46321;48.398;11.754;2023-09-19T02:32:17;96295.00;;;16.09;83.11
60479;BME280;46321;48.398;11.754;2023-09-19T02:34:43;96299.94;;;16.12;83.25
60479;BME280;46321;48.398;11.754;2023-09-19T02:37:08;96302.19;;;16.15;83.26
60479;BME280;46321;48.398;11.754;2023-09-19T02:39:34;96307.44;;;16.22;82.22
60479;BME280;46321;48.398;11.754;2023-09-19T02:41:59;96306.66;;;16.21;82.65
60479;BME280;46321;48.398;11.754;2023-09-19T02:44:25;96308.28;;;16.22;82.64
60479;BME280;46321;48.398;11.754;2023-09-19T02:46:50;96305.19;;;16.25;82.54
60479;BME280;46321;48.398;11.754;2023-09-19T02:49:16;96311.78;;;16.23;83.03
60479;BME280;46321;48.398;11.754;2023-09-19T02:51:43;96310.75;;;16.24;82.61
60479;BME280;46321;48.398;11.754;2023-09-19T02:54:08;96312.00;;;16.21;82.82
60479;BME280;46321;48.398;11.754;2023-09-19T02:56:34;96317.94;;;16.23;82.54
60479;BME280;46321;48.398;11.754;2023-09-19T02:59:00;96315.47;;;16.22;82.67
60479;BME280;46321;48.398;11.754;2023-09-19T03:01:26;96328.44;;;16.18;83.28
60479;BME280;46321;48.398;11.754;2023-09-19T03:03:53;96326.81;;;16.17;83.30
60479;BME280;46321;48.398;11.754;2023-09-19T03:06:19;96330.47;;;16.23;82.45
60479;BME280;46321;48.398;11.754;2023-09-19T03:08:45;96324.91;;;16.24;82.49
60479;BME280;46321;48.398;11.754;2023-09-19T03:11:12;96325.16;;;16.16;82.46
60479;BME280;46321;48.398;11.754;2023-09-19T03:13:39;96324.56;;;16.14;82.65
60479;BME280;46321;48.398;11.754;2023-09-19T03:16:07;96324.94;;;16.18;82.89
60479;BME280;46321;48.398;11.754;2023-09-19T03:18:34;96326.59;;;16.19;82.49
60479;BME280;46321;48.398;11.754;2023-09-19T03:20:59;96330.53;;;16.09;82.76
60479;BME280;46321;48.398;11.754;2023-09-19T03:23:28;96331.38;;;16.10;82.87
60479;BME280;46321;48.398;11.754;2023-09-19T03:25:57;96330.78;;;16.08;82.91
60479;BME280;46321;48.398;11.754;2023-09-19T03:28:24;96337.09;;;16.13;82.48
60479;BME280;46321;48.398;11.754;2023-09-19T03:31:03;96344.28;;;16.13;82.39
60479;BME280;46321;48.398;11.754;2023-09-19T03:33:29;96337.31;;;16.12;82.49
60479;BME280;46321;48.398;11.754;2023-09-19T03:35:57;96329.72;;;16.09;82.64
60479;BME280;46321;48.398;11.754;2023-09-19T03:38:24;96331.38;;;16.10;82.56
60479;BME280;46321;48.398;11.754;2023-09-19T03:40:49;96335.88;;;16.09;82.65
60479;BME280;46321;48.398;11.754;2023-09-19T03:43:15;96336.09;;;16.08;82.35
60479;BME280;46321;48.398;11.754;2023-09-19T03:45:40;96337.94;;;16.07;82.51
60479;BME280;46321;48.398;11.754;2023-09-19T03:48:09;96340.63;;;16.00;83.20
60479;BME280;46321;48.398;11.754;2023-09-19T03:50:35;96341.03;;;16.04;82.70
60479;BME280;46321;48.398;11.754;2023-09-19T03:53:00;96345.34;;;15.98;82.99
60479;BME280;46321;48.398;11.754;2023-09-19T03:55:25;96354.19;;;15.99;82.81
60479;BME280;46321;48.398;11.754;2023-09-19T03:57:52;96355.25;;;15.91;83.06
60479;BME280;46321;48.398;11.754;2023-09-19T04:00:18;96356.44;;;15.95;82.87
60479;BME280;46321;48.398;11.754;2023-09-19T04:02:46;96364.28;;;15.97;83.16
60479;BME280;46321;48.398;11.754;2023-09-19T04:05:11;96360.34;;;15.99;82.67
60479;BME280;46321;48.398;11.754;2023-09-19T04:07:37;96361.75;;;16.02;82.53
60479;BME280;46321;48.398;11.754;2023-09-19T04:10:02;96357.69;;;15.99;82.70
60479;BME280;46321;48.398;11.754;2023-09-19T04:12:28;96368.38;;;15.99;82.13
60479;BME280;46321;48.398;11.754;2023-09-19T04:14:53;96366.09;;;16.03;82.07
60479;BME280;46321;48.398;11.754;2023-09-19T04:17:19;96366.72;;;16.05;81.69
60479;BME280;46321;48.398;11.754;2023-09-19T04:19:44;96370.81;;;16.08;81.68
60479;BME280;46321;48.398;11.754;2023-09-19T04:22:10;96367.53;;;16.06;82.38
60479;BME280;46321;48.398;11.754;2023-09-19T04:24:37;96371.63;;;16.08;81.59
60479;BME280;46321;48.398;11.754;2023-09-19T04:27:03;96374.91;;;16.10;81.58
60479;BME280;46321;48.398;11.754;2023-09-19T04:29:28;96382.09;;;16.10;81.41
60479;BME280;46321;48.398;11.754;2023-09-19T04:31:54;96384.75;;;16.10;81.66
60479;BME280;46321;48.398;11.754;2023-09-19T04:34:19;96382.91;;;16.10;81.43
60479;BME280;46321;48.398;11.754;2023-09-19T04:36:45;96384.38;;;16.06;81.15
60479;BME280;46321;48.398;11.754;2023-09-19T04:39:10;96387.00;;;16.13;81.32
60479;BME280;46321;48.398;11.754;2023-09-19T04:41:38;96389.25;;;16.16;80.71
60479;BME280;46321;48.398;11.754;2023-09-19T04:44:07;96397.44;;;16.21;81.18
60479;BME280;46321;48.398;11.754;2023-09-19T04:46:35;96396.63;;;16.21;80.50
60479;BME280;46321;48.398;11.754;2023-09-19T04:49:00;96390.44;;;16.20;80.61
60479;BME280;46321;48.398;11.754;2023-09-19T04:51:25;96399.50;;;16.19;80.87
60479;BME280;46321;48.398;11.754;2023-09-19T04:53:54;96399.88;;;16.23;80.01
60479;BME280;46321;48.398;11.754;2023-09-19T04:56:19;96387.97;;;16.25;79.79
60479;BME280;46321;48.398;11.754;2023-09-19T04:58:46;96399.06;;;16.22;80.43
60479;BME280;46321;48.398;11.754;2023-09-19T05:01:11;96405.22;;;16.23;80.27
60479;BME280;46321;48.398;11.754;2023-09-19T05:03:37;96407.28;;;16.21;80.08
60479;BME280;46321;48.398;11.754;2023-09-19T05:06:03;96407.06;;;16.22;79.95
60479;BME280;46321;48.398;11.754;2023-09-19T05:08:30;96410.78;;;16.21;79.99
60479;BME280;46321;48.398;11.754;2023-09-19T05:10:55;96416.13;;;16.21;79.90
60479;BME280;46321;48.398;11.754;2023-09-19T05:13:21;96423.28;;;16.28;80.08
60479;BME280;46321;48.398;11.754;2023-09-19T05:15:48;96421.63;;;16.27;79.88
60479;BME280;46321;48.398;11.754;2023-09-19T05:18:15;96417.13;;;16.27;80.13
60479;BME280;46321;48.398;11.754;2023-09-19T05:20:40;96432.50;;;16.32;79.89
60479;BME280;46321;48.398;11.754;2023-09-19T05:23:06;96427.16;;;16.32;79.98
60479;BME280;46321;48.398;11.754;2023-09-19T05:25:37;96434.16;;;16.33;80.09
60479;BME280;46321;48.398;11.754;2023-09-19T05:28:05;96437.03;;;16.31;80.42
60479;BME280;46321;48.398;11.754;2023-09-19T05:30:31;96438.44;;;16.34;80.87
60479;BME280;46321;48.398;11.754;2023-09-19T05:32:57;96433.94;;;16.34;80.82
60479;BME280;46321;48.398;11.754;2023-09-19T05:35:23;96438.44;;;16.34;81.11
60479;BME280;46321;48.398;11.754;2023-09-19T05:37:52;96439.66;;;16.38;80.51
60479;BME280;46321;48.398;11.754;2023-09-19T05:40:18;96445.00;;;16.38;80.71
60479;BME280;46321;48.398;11.754;2023-09-19T05:42:44;96449.94;;;16.41;80.86
60479;BME280;46321;48.398;11.754;2023-09-19T05:45:10;96442.91;;;16.47;80.75
60479;BME280;46321;48.398;11.754;2023-09-19T05:47:42;96450.34;;;16.38;81.11
60479;BME280;46321;48.398;11.754;2023-09-19T05:50:12;96444.78;;;16.46;80.56
60479;BME280;46321;48.398;11.754;2023-09-19T05:52:37;96442.69;;;16.48;80.65
60479;BME280;46321;48.398;11.754;2023-09-19T05:55:04;96440.78;;;16.56;79.89
60479;BME280;46321;48.398;11.754;2023-09-19T05:57:31;96450.72;;;16.48;80.07
60479;BME280;46321;48.398;11.754;2023-09-19T05:59:57;96447.03;;;16.43;80.05
60479;BME280;46321;48.398;11.754;2023-09-19T06:02:22;96448.88;;;16.42;80.06
60479;BME280;46321;48.398;11.754;2023-09-19T06:04:48;96456.25;;;16.47;80.20
60479;BME280;46321;48.398;11.754;2023-09-19T06:07:14;96454.00;;;16.51;80.11
60479;BME280;46321;48.398;11.754;2023-09-19T06:09:41;96452.25;;;16.63;79.60
60479;BME280;46321;48.398;11.754;2023-09-19T06:12:06;96444.13;;;16.83;78.95
60479;BME280;46321;48.398;11.754;2023-09-19T06:14:32;96449.91;;;17.06;78.67
60479;BME280;46321;48.398;11.754;2023-09-19T06:16:57;96455.91;;;17.34;77.08
60479;BME280;46321;48.398;11.754;2023-09-19T06:19:22;96453.84;;;17.55;76.52
60479;BME280;46321;48.398;11.754;2023-09-19T06:21:48;96461.50;;;17.51;75.69
60479;BME280;46321;48.398;11.754;2023-09-19T06:24:14;96449.97;;;17.50;75.42
60479;BME280;46321;48.398;11.754;2023-09-19T06:26:39;96466.25;;;17.49;75.14
60479;BME280;46321;48.398;11.754;2023-09-19T06:29:05;96466.69;;;17.46;75.22
60479;BME280;46321;48.398;11.754;2023-09-19T06:31:32;96464.47;;;17.43;75.47
60479;BME280;46321;48.398;11.754;2023-09-19T06:33:58;96467.72;;;17.45;75.57
60479;BME280;46321;48.398;11.754;2023-09-19T06:36:23;96477.31;;;17.53;75.99
60479;BME280;46321;48.398;11.754;2023-09-19T06:38:49;96470.81;;;17.86;75.59
60479;BME280;46321;48.398;11.754;2023-09-19T06:41:16;96480.34;;;18.19;73.35
60479;BME280;46321;48.398;11.754;2023-09-19T06:43:42;96493.69;;;18.57;72.61
60479;BME280;46321;48.398;11.754;2023-09-19T06:46:07;96481.06;;;18.76;71.07
60479;BME280;46321;48.398;11.754;2023-09-19T06:48:33;96494.47;;;18.76;70.17
60479;BME280;46321;48.398;11.754;2023-09-19T06:50:58;96485.69;;;18.69;69.72
60479;BME280;46321;48.398;11.754;2023-09-19T06:53:29;96493.41;;;18.77;70.43
60479;BME280;46321;48.398;11.754;2023-09-19T06:55:57;96481.47;;;18.92;70.09
60479;BME280;46321;48.398;11.754;2023-09-19T06:58:22;96486.94;;;19.28;68.87
60479;BME280;46321;48.398;11.754;2023-09-19T07:00:47;96478.66;;;19.54;67.70
60479;BME280;46321;48.398;11.754;2023-09-19T07:03:13;96475.03;;;19.84;65.55
60479;BME280;46321;48.398;11.754;2023-09-19T07:05:40;96489.94;;;19.92;64.84
60479;BME280;46321;48.398;11.754;2023-09-19T07:08:06;96484.22;;;20.12;63.79
60479;BME280;46321;48.398;11.754;2023-09-19T07:10:32;96491.06;;;20.32;63.11
60479;BME280;46321;48.398;11.754;2023-09-19T07:13:06;96505.44;;;20.67;62.43
60479;BME280;46321;48.398;11.754;2023-09-19T07:15:34;96500.19;;;21.19;59.89
60479;BME280;46321;48.398;11.754;2023-09-19T07:18:01;96495.44;;;21.61;59.58
60479;BME280;46321;48.398;11.754;2023-09-19T07:20:26;96495.84;;;22.10;57.32
60479;BME280;46321;48.398;11.754;2023-09-19T07:22:52;96505.25;;;22.29;56.89
60479;BME280;46321;48.398;11.754;2023-09-19T07:25:20;96506.56;;;22.27;55.64
60479;BME280;46321;48.398;11.754;2023-09-19T07:27:45;96503.06;;;22.04;56.22
60479;BME280;46321;48.398;11.754;2023-09-19T07:30:11;96500.03;;;22.00;56.52
60479;BME280;46321;48.398;11.754;2023-09-19T07:32:37;96500.16;;;21.54;57.34
60479;BME280;46321;48.398;11.754;2023-09-19T07:35:04;96506.03;;;21.16;58.41
60479;BME280;46321;48.398;11.754;2023-09-19T07:37:30;96503.91;;;21.01;58.10
60479;BME280;46321;48.398;11.754;2023-09-19T07:40:04;96510.09;;;21.01;57.98
60479;BME280;46321;48.398;11.754;2023-09-19T07:42:34;96515.66;;;21.12;58.23
60479;BME280;46321;48.398;11.754;2023-09-19T07:45:01;96506.03;;;21.16;57.90
60479;BME280;46321;48.398;11.754;2023-09-19T07:47:26;96514.94;;;21.68;56.96
60479;BME280;46321;48.398;11.754;2023-09-19T07:49:52;96512.53;;;22.29;55.87
60479;BME280;46321;48.398;11.754;2023-09-19T07:52:18;96515.91;;;22.64;53.88
60479;BME280;46321;48.398;11.754;2023-09-19T07:54:44;96509.88;;;23.40;51.84
60479;BME280;46321;48.398;11.754;2023-09-19T07:57:10;96515.31;;;24.27;50.33
60479;BME280;46321;48.398;11.754;2023-09-19T07:59:36;96509.53;;;24.77;48.55
60479;BME280;46321;48.398;11.754;2023-09-19T08:02:04;96511.09;;;24.52;48.53
60479;BME280;46321;48.398;11.754;2023-09-19T08:04:29;96516.53;;;24.03;49.10
60479;BME280;46321;48.398;11.754;2023-09-19T08:06:58;96519.66;;;24.33;49.10
60479;BME280;46321;48.398;11.754;2023-09-19T08:09:26;96518.38;;;23.97;49.97
60479;BME280;46321;48.398;11.754;2023-09-19T08:11:52;96529.59;;;23.73;51.13
60479;BME280;46321;48.398;11.754;2023-09-19T08:14:18;96525.16;;;23.95;50.56
60479;BME280;46321;48.398;11.754;2023-09-19T08:16:43;96521.28;;;24.34;49.17
60479;BME280;46321;48.398;11.754;2023-09-19T08:19:12;96519.38;;;25.35;47.71
60479;BME280;46321;48.398;11.754;2023-09-19T08:21:37;96519.97;;;26.56;44.77
60479;BME280;46321;48.398;11.754;2023-09-19T08:24:02;96527.13;;;26.87;44.17
60479;BME280;46321;48.398;11.754;2023-09-19T08:26:29;96522.63;;;27.17;42.46
60479;BME280;46321;48.398;11.754;2023-09-19T08:28:54;96523.28;;;26.43;43.53
60479;BME280;46321;48.398;11.754;2023-09-19T08:31:20;96525.06;;;27.08;43.13
60479;BME280;46321;48.398;11.754;2023-09-19T08:33:46;96514.59;;;28.21;41.43
60479;BME280;46321;48.398;11.754;2023-09-19T08:36:14;96537.78;;;28.43;40.27
60479;BME280;46321;48.398;11.754;2023-09-19T08:38:40;96526.78;;;28.53;40.47
60479;BME280;46321;48.398;11.754;2023-09-19T08:41:06;96531.56;;;28.81;40.30
60479;BME280;46321;48.398;11.754;2023-09-19T08:43:33;96537.94;;;29.82;38.89
60479;BME280;46321;48.398;11.754;2023-09-19T08:46:11;96525.09;;;31.56;35.42
60479;BME280;46321;48.398;11.754;2023-09-19T08:48:43;96530.72;;;32.14;33.25
60479;BME280;46321;48.398;11.754;2023-09-19T08:51:13;96525.56;;;31.12;33.96
60479;BME280;46321;48.398;11.754;2023-09-19T08:53:50;96523.25;;;31.28;34.36
60479;BME280;46321;48.398;11.754;2023-09-19T08:56:18;96525.28;;;32.23;32.29
60479;BME280;46321;48.398;11.754;2023-09-19T08:59:13;96524.78;;;32.79;31.38
60479;BME280;46321;48.398;11.754;2023-09-19T09:01:40;96522.06;;;33.24;31.10
60479;BME280;46321;48.398;11.754;2023-09-19T09:04:08;96526.31;;;33.87;29.41
60479;BME280;46321;48.398;11.754;2023-09-19T09:06:34;96522.91;;;33.90;29.92
60479;BME280;46321;48.398;11.754;2023-09-19T09:09:01;96523.72;;;34.60;28.68
60479;BME280;46321;48.398;11.754;2023-09-19T09:11:28;96514.00;;;35.27;27.52
60479;BME280;46321;48.398;11.754;2023-09-19T09:13:53;96523.03;;;35.96;26.13
60479;BME280;46321;48.398;11.754;2023-09-19T09:16:19;96520.16;;;36.67;26.50
60479;BME280;46321;48.398;11.754;2023-09-19T09:18:45;96518.22;;;37.22;24.95
60479;BME280;46321;48.398;11.754;2023-09-19T09:21:11;96515.75;;;35.32;27.09
60479;BME280;46321;48.398;11.754;2023-09-19T09:23:37;96533.78;;;32.89;30.70
60479;BME280;46321;48.398;11.754;2023-09-19T09:26:03;96523.06;;;35.06;28.14
60479;BME280;46321;48.398;11.754;2023-09-19T09:28:32;96523.09;;;34.85;28.04
60479;BME280;46321;48.398;11.754;2023-09-19T09:30:58;96533.47;;;33.17;30.26
60479;BME280;46321;48.398;11.754;2023-09-19T09:33:24;96528.25;;;30.89;33.28
60479;BME280;46321;48.398;11.754;2023-09-19T09:38:20;96536.16;;;29.05;37.27
60479;BME280;46321;48.398;11.754;2023-09-19T09:40:50;96536.81;;;27.74;39.01
60479;BME280;46321;48.398;11.754;2023-09-19T09:43:36;96534.03;;;27.14;39.71
60479;BME280;46321;48.398;11.754;2023-09-19T09:46:17;96533.91;;;26.23;41.35
60479;BME280;46321;48.398;11.754;2023-09-19T09:51:42;96534.19;;;24.86;43.69
60479;BME280;46321;48.398;11.754;2023-09-19T09:54:23;96533.06;;;24.12;46.32
60479;BME280;46321;48.398;11.754;2023-09-19T09:56:58;96538.72;;;24.64;46.84
60479;BME280;46321;48.398;11.754;2023-09-19T09:59:44;96533.25;;;26.52;43.90
60479;BME280;46321;48.398;11.754;2023-09-19T10:02:17;96534.44;;;26.86;42.79
60479;BME280;46321;48.398;11.754;2023-09-19T10:04:55;96540.50;;;25.96;43.03
60479;BME280;46321;48.398;11.754;2023-09-19T10:07:39;96536.72;;;25.24;45.07
60479;BME280;46321;48.398;11.754;2023-09-19T10:10:07;96539.94;;;24.30;46.57
60479;BME280;46321;48.398;11.754;2023-09-19T10:12:55;96550.94;;;23.75;48.00
60479;BME280;46321;48.398;11.754;2023-09-19T10:15:22;96549.22;;;23.30;49.18
60479;BME280;46321;48.398;11.754;2023-09-19T10:17:52;96551.25;;;23.78;48.10
60479;BME280;46321;48.398;11.754;2023-09-19T10:20:19;96540.63;;;24.74;46.15
60479;BME280;46321;48.398;11.754;2023-09-19T10:22:59;96545.72;;;24.06;46.93
60479;BME280;46321;48.398;11.754;2023-09-19T10:25:26;96547.66;;;23.67;48.23
60479;BME280;46321;48.398;11.754;2023-09-19T10:27:54;96556.72;;;23.23;49.70
60479;BME280;46321;48.398;11.754;2023-09-19T10:30:22;96553.19;;;22.95;49.58
60479;BME280;46321;48.398;11.754;2023-09-19T10:32:57;96568.03;;;22.70;51.28
60479;BME280;46321;48.398;11.754;2023-09-19T10:35:23;96565.56;;;22.46;50.98
60479;BME280;46321;48.398;11.754;2023-09-19T10:37:50;96566.06;;;22.65;51.64
60479;BME280;46321;48.398;11.754;2023-09-19T10:40:18;96577.56;;;22.55;51.48
60479;BME280;46321;48.398;11.754;2023-09-19T10:42:45;96578.16;;;22.17;54.03
60479;BME280;46321;48.398;11.754;2023-09-19T10:45:14;96589.69;;;21.95;55.63
60479;BME280;46321;48.398;11.754;2023-09-19T10:47:40;96592.06;;;21.92;56.70
60479;BME280;46321;48.398;11.754;2023-09-19T10:50:06;96604.13;;;21.72;56.96
60479;BME280;46321;48.398;11.754;2023-09-19T10:52:40;96595.78;;;21.39;58.10
60479;BME280;46321;48.398;11.754;2023-09-19T10:55:07;96604.63;;;21.22;58.76
60479;BME280;46321;48.398;11.754;2023-09-19T10:57:35;96591.16;;;21.05;59.13
60479;BME280;46321;48.398;11.754;2023-09-19T11:02:28;96601.53;;;20.72;60.04
60479;BME280;46321;48.398;11.754;2023-09-19T11:04:53;96604.69;;;20.69;61.05
60479;BME280;46321;48.398;11.754;2023-09-19T11:07:18;96596.47;;;22.15;57.08
60479;BME280;46321;48.398;11.754;2023-09-19T11:09:51;96589.97;;;26.54;46.89
60479;BME280;46321;48.398;11.754;2023-09-19T11:14:54;96589.28;;;23.44;52.75
60479;BME280;46321;48.398;11.754;2023-09-19T11:31:41;96565.81;;;24.75;50.36
60479;BME280;46321;48.398;11.754;2023-09-19T11:33:29;96568.53;;;24.75;50.86
60479;BME280;46321;48.398;11.754;2023-09-19T11:36:15;96559.84;;;24.73;50.30
60479;BME280;46321;48.398;11.754;2023-09-19T11:43:53;96564.47;;;24.18;51.78
60479;BME280;46321;48.398;11.754;2023-09-19T11:46:21;96563.81;;;24.00;52.62
60479;BME280;46321;48.398;11.754;2023-09-19T11:48:50;96560.94;;;24.18;52.08
60479;BME280;46321;48.398;11.754;2023-09-19T11:51:20;96566.97;;;24.25;50.29
60479;BME280;46321;48.398;11.754;2023-09-19T11:53:50;96558.47;;;24.11;52.03
60479;BME280;46321;48.398;11.754;2023-09-19T11:56:17;96554.16;;;24.15;51.95
60479;BME280;46321;48.398;11.754;2023-09-19T11:58:46;96551.78;;;24.24;50.75
60479;BME280;46321;48.398;11.754;2023-09-19T12:01:14;96545.66;;;24.39;50.23
60479;BME280;46321;48.398;11.754;2023-09-19T12:03:46;96545.66;;;24.39;49.19
60479;BME280;46321;48.398;11.754;2023-09-19T12:06:14;96548.84;;;24.31;49.67
60479;BME280;46321;48.398;11.754;2023-09-19T12:08:41;96557.44;;;24.22;50.26
60479;BME280;46321;48.398;11.754;2023-09-19T12:11:12;96559.22;;;24.01;50.66
60479;BME280;46321;48.398;11.754;2023-09-19T12:13:41;96550.38;;;23.67;51.00
60479;BME280;46321;48.398;11.754;2023-09-19T12:16:13;96554.25;;;23.82;50.72
60479;BME280;46321;48.398;11.754;2023-09-19T12:18:40;96552.50;;;23.65;50.99
60479;BME280;46321;48.398;11.754;2023-09-19T12:21:07;96554.91;;;23.62;51.25
60479;BME280;46321;48.398;11.754;2023-09-19T12:23:37;96566.66;;;23.17;53.15
60479;BME280;46321;48.398;11.754;2023-09-19T12:26:06;96560.34;;;23.39;51.84
60479;BME280;46321;48.398;11.754;2023-09-19T12:28:41;96556.75;;;23.28;52.73
60479;BME280;46321;48.398;11.754;2023-09-19T12:31:07;96550.81;;;23.26;53.24
60479;BME280;46321;48.398;11.754;2023-09-19T12:33:33;96555.22;;;23.10;53.46
60479;BME280;46321;48.398;11.754;2023-09-19T12:36:00;96547.00;;;23.50;52.16
60479;BME280;46321;48.398;11.754;2023-09-19T12:38:28;96543.66;;;23.75;52.65
60479;BME280;46321;48.398;11.754;2023-09-19T12:40:57;96546.75;;;23.95;52.28
60479;BME280;46321;48.398;11.754;2023-09-19T12:43:25;96551.56;;;24.26;51.41
60479;BME280;46321;48.398;11.754;2023-09-19T12:45:52;96551.00;;;24.29;50.54
60479;BME280;46321;48.398;11.754;2023-09-19T12:51:07;96558.44;;;24.06;51.15
60479;BME280;46321;48.398;11.754;2023-09-19T12:53:36;96559.47;;;23.99;51.32
60479;BME280;46321;48.398;11.754;2023-09-19T12:56:14;96560.69;;;23.76;51.38
60479;BME280;46321;48.398;11.754;2023-09-19T12:58:57;96568.25;;;23.46;52.85
60479;BME280;46321;48.398;11.754;2023-09-19T13:01:27;96565.44;;;23.03;52.87
60479;BME280;46321;48.398;11.754;2023-09-19T13:04:15;96558.22;;;22.63;53.61
60479;BME280;46321;48.398;11.754;2023-09-19T13:06:48;96556.09;;;22.21;55.05
60479;BME280;46321;48.398;11.754;2023-09-19T13:09:14;96553.38;;;22.21;55.67
60479;BME280;46321;48.398;11.754;2023-09-19T13:11:41;96556.13;;;22.03;55.51
60479;BME280;46321;48.398;11.754;2023-09-19T13:14:20;96546.19;;;22.26;55.31
60479;BME280;46321;48.398;11.754;2023-09-19T13:17:05;96547.34;;;22.53;53.19
60479;BME280;46321;48.398;11.754;2023-09-19T13:19:44;96548.00;;;22.65;53.53
60479;BME280;46321;48.398;11.754;2023-09-19T13:22:39;96538.78;;;22.61;53.79
60479;BME280;46321;48.398;11.754;2023-09-19T13:25:09;96528.50;;;22.58;52.36
60479;BME280;46321;48.398;11.754;2023-09-19T13:27:43;96520.47;;;22.63;52.38
60479;BME280;46321;48.398;11.754;2023-09-19T13:30:10;96522.81;;;22.54;53.12
60479;BME280;46321;48.398;11.754;2023-09-19T13:32:35;96526.22;;;22.45;52.54
60479;BME280;46321;48.398;11.754;2023-09-19T13:35:00;96521.50;;;22.12;53.55